createdAt,value
2023-05-24T00:00:18.633Z,12.71
2023-05-24T00:02:46.532Z,12.69
2023-05-24T00:05:16.716Z,12.59
2023-05-24T00:07:46.214Z,12.86
2023-05-24T00:10:14.207Z,13.02
2023-05-24T00:12:42.312Z,12.78
2023-05-24T00:15:10.724Z,12.54
2023-05-24T00:17:41.194Z,12.67
2023-05-24T00:20:12.027Z,12.61
2023-05-24T00:22:40.384Z,12.82
2023-05-24T00:25:10.640Z,12.62
2023-05-24T00:27:39.067Z,12.66
2023-05-24T00:30:08.486Z,12.68
2023-05-24T00:32:36.667Z,12.65
2023-05-24T00:35:04.925Z,12.42
2023-05-24T00:37:32.693Z,12.50
2023-05-24T00:40:00.398Z,12.71
2023-05-24T00:42:29.527Z,12.66
2023-05-24T00:44:57.272Z,12.44
2023-05-24T00:47:25.458Z,12.54
2023-05-24T00:49:53.574Z,12.02
2023-05-24T00:52:22.172Z,12.14
2023-05-24T00:54:50.130Z,12.60
2023-05-24T00:57:18.912Z,12.15
2023-05-24T00:59:48.418Z,12.23
2023-05-24T01:02:17.106Z,12.13
2023-05-24T01:04:45.061Z,12.04
2023-05-24T01:07:22.760Z,12.02
2023-05-24T01:10:05.747Z,12.02
2023-05-24T01:12:43.955Z,11.99
2023-05-24T01:15:23.406Z,12.07
2023-05-24T01:18:01.686Z,12.07
2023-05-24T01:20:33.478Z,12.08
2023-05-24T01:23:31.125Z,11.87
2023-05-24T01:26:14.627Z,11.90
2023-05-24T01:28:44.462Z,11.76
2023-05-24T01:31:13.786Z,11.86
2023-05-24T01:33:42.949Z,11.76
2023-05-24T01:36:11.060Z,11.66
2023-05-24T01:38:40.260Z,11.59
2023-05-24T01:41:22.560Z,11.62
2023-05-24T01:43:57.377Z,11.79
2023-05-24T01:46:36.367Z,11.95
2023-05-24T01:49:12.338Z,11.70
2023-05-24T01:51:45.060Z,11.54
2023-05-24T01:54:15.022Z,11.61
2023-05-24T01:56:45.268Z,11.52
2023-05-24T01:59:16.084Z,11.65
2023-05-24T02:01:44.159Z,11.59
2023-05-24T02:04:12.479Z,11.57
2023-05-24T02:06:40.247Z,11.70
2023-05-24T02:09:08.033Z,11.77
2023-05-24T02:11:35.815Z,11.64
2023-05-24T02:14:03.526Z,11.73
2023-05-24T02:16:33.282Z,11.76
2023-05-24T02:19:01.169Z,11.62
2023-05-24T02:21:29.188Z,11.60
2023-05-24T02:23:57.023Z,11.27
2023-05-24T02:26:24.767Z,11.16
2023-05-24T02:28:52.596Z,11.42
2023-05-24T02:31:21.613Z,11.44
2023-05-24T02:33:51.277Z,11.39
2023-05-24T02:36:19.186Z,11.13
2023-05-24T02:38:46.953Z,11.45
2023-05-24T02:41:18.263Z,11.44
2023-05-24T02:43:46.140Z,11.46
2023-05-24T02:46:14.301Z,11.56
2023-05-24T02:48:42.286Z,10.93
2023-05-24T02:51:11.389Z,11.23
2023-05-24T02:53:39.075Z,11.67
2023-05-24T02:56:07.526Z,11.35
2023-05-24T02:58:40.465Z,11.35
2023-05-24T03:01:08.795Z,11.39
2023-05-24T03:03:36.756Z,11.27
2023-05-24T03:06:04.679Z,11.12
2023-05-24T03:08:33.871Z,11.45
2023-05-24T03:11:01.641Z,11.40
2023-05-24T03:13:29.614Z,11.06
2023-05-24T03:15:57.379Z,11.20
2023-05-24T03:18:25.168Z,11.15
2023-05-24T03:20:53.042Z,11.43
2023-05-24T03:23:20.797Z,11.14
2023-05-24T03:25:49.983Z,11.13
2023-05-24T03:28:17.784Z,10.97
2023-05-24T03:30:45.683Z,11.05
2023-05-24T03:33:13.402Z,10.94
2023-05-24T03:35:41.223Z,10.86
2023-05-24T03:38:08.988Z,10.74
2023-05-24T03:40:37.041Z,10.59
2023-05-24T03:43:06.275Z,10.80
2023-05-24T03:45:39.030Z,10.73
2023-05-24T03:48:07.925Z,10.68
2023-05-24T03:50:35.713Z,10.70
2023-05-24T03:53:03.614Z,10.79
2023-05-24T03:55:31.427Z,10.83
2023-05-24T03:57:59.192Z,10.63
2023-05-24T04:00:28.573Z,10.41
2023-05-24T04:02:56.961Z,10.70
2023-05-24T04:05:27.031Z,10.79
2023-05-24T04:07:55.012Z,10.43
2023-05-24T04:10:22.871Z,10.65
2023-05-24T04:12:50.636Z,10.40
2023-05-24T04:15:18.504Z,10.48
2023-05-24T04:17:48.690Z,10.73
2023-05-24T04:20:16.634Z,10.61
2023-05-24T04:22:44.403Z,10.59
2023-05-24T04:25:12.165Z,10.31
2023-05-24T04:27:40.054Z,10.32
2023-05-24T04:30:09.317Z,10.36
2023-05-24T04:32:37.156Z,10.48
2023-05-24T04:35:07.205Z,10.44
2023-05-24T04:37:34.917Z,10.62
2023-05-24T04:40:04.219Z,10.61
2023-05-24T04:42:32.475Z,10.61
2023-05-24T04:45:00.551Z,10.30
2023-05-24T04:47:28.473Z,10.60
2023-05-24T04:49:56.331Z,10.67
2023-05-24T04:52:25.786Z,10.39
2023-05-24T04:54:55.197Z,10.39
2023-05-24T04:57:22.872Z,10.63
2023-05-24T04:59:50.741Z,10.44
2023-05-24T05:02:18.628Z,10.65
2023-05-24T05:04:46.478Z,10.54
2023-05-24T05:07:14.158Z,10.64
2023-05-24T05:09:43.243Z,10.92
2023-05-24T05:12:12.720Z,11.06
2023-05-24T05:14:40.576Z,10.92
2023-05-24T05:17:08.506Z,10.77
2023-05-24T05:19:36.680Z,11.10
2023-05-24T05:22:04.452Z,11.28
2023-05-24T05:24:32.336Z,11.63
2023-05-24T05:27:01.636Z,11.47
2023-05-24T05:29:29.322Z,12.08
2023-05-24T05:31:57.088Z,11.92
2023-05-24T05:34:24.849Z,12.14
2023-05-24T05:36:52.591Z,11.71
2023-05-24T05:39:20.295Z,11.44
2023-05-24T05:41:48.038Z,11.92
2023-05-24T05:44:17.242Z,11.33
2023-05-24T05:46:46.371Z,11.41
2023-05-24T05:49:15.222Z,11.94
2023-05-24T05:51:43.207Z,11.86
2023-05-24T05:54:15.427Z,11.49
2023-05-24T05:56:47.939Z,11.88
2023-05-24T05:59:17.307Z,11.89
2023-05-24T06:01:47.047Z,12.42
2023-05-24T06:04:14.863Z,12.68
2023-05-24T06:06:44.156Z,12.77
2023-05-24T06:09:12.231Z,13.00
2023-05-24T06:11:44.740Z,12.72
2023-05-24T06:14:13.404Z,13.00
2023-05-24T06:16:43.690Z,13.30
2023-05-24T06:19:11.583Z,12.69
2023-05-24T06:21:41.026Z,13.35
2023-05-24T06:24:09.741Z,13.46
2023-05-24T06:26:38.089Z,12.82
2023-05-24T06:29:06.061Z,13.21
2023-05-24T06:31:34.763Z,13.75
2023-05-24T06:34:06.583Z,13.46
2023-05-24T06:36:35.925Z,13.55
2023-05-24T06:39:03.901Z,13.83
2023-05-24T06:41:31.657Z,14.36
2023-05-24T06:43:59.872Z,13.72
2023-05-24T06:46:27.734Z,14.10
2023-05-24T06:48:55.569Z,13.62
2023-05-24T06:51:24.968Z,14.04
2023-05-24T06:53:53.000Z,14.12
2023-05-24T06:56:21.494Z,14.02
2023-05-24T06:58:49.230Z,13.83
2023-05-24T07:01:17.134Z,14.15
2023-05-24T07:03:45.080Z,14.77
2023-05-24T07:06:14.290Z,14.71
2023-05-24T07:08:44.193Z,13.88
2023-05-24T07:11:12.109Z,13.40
2023-05-24T07:13:39.968Z,14.36
2023-05-24T07:16:07.916Z,14.11
2023-05-24T07:18:35.982Z,14.39
2023-05-24T07:21:04.063Z,13.81
2023-05-24T07:23:32.366Z,14.37
2023-05-24T07:26:01.683Z,14.99
2023-05-24T07:28:29.526Z,14.58
2023-05-24T07:30:57.393Z,14.74
2023-05-24T07:33:25.188Z,14.82
2023-05-24T07:35:53.896Z,14.19
2023-05-24T07:38:22.469Z,14.54
2023-05-24T07:40:50.253Z,15.24
2023-05-24T07:43:19.832Z,15.47
2023-05-24T07:45:47.623Z,15.34
2023-05-24T07:48:15.949Z,15.01
2023-05-24T07:50:48.537Z,14.88
2023-05-24T07:53:19.022Z,15.24
2023-05-24T07:55:46.997Z,14.58
2023-05-24T07:58:14.832Z,14.61
2023-05-24T08:00:44.058Z,14.63
2023-05-24T08:03:14.441Z,14.60
2023-05-24T08:05:43.134Z,15.66
2023-05-24T08:08:11.147Z,15.64
2023-05-24T08:10:39.718Z,15.26
2023-05-24T08:13:07.697Z,15.33
2023-05-24T08:15:35.687Z,15.44
2023-05-24T08:18:05.432Z,15.73
2023-05-24T08:20:36.285Z,15.91
2023-05-24T08:23:04.304Z,15.94
2023-05-24T08:25:32.082Z,15.78
2023-05-24T08:27:59.910Z,15.01
2023-05-24T08:30:28.049Z,15.72
2023-05-24T08:32:55.956Z,16.39
2023-05-24T08:35:25.237Z,16.19
2023-05-24T08:37:52.923Z,16.36
2023-05-24T08:40:20.880Z,17.47
2023-05-24T08:42:50.650Z,16.84
2023-05-24T08:45:19.921Z,16.24
2023-05-24T08:47:48.844Z,17.26
2023-05-24T08:50:16.834Z,17.10
2023-05-24T08:52:47.390Z,16.08
2023-05-24T08:55:16.609Z,16.31
2023-05-24T08:57:46.608Z,16.05
2023-05-24T09:00:15.795Z,16.05
2023-05-24T09:02:46.357Z,16.98
2023-05-24T09:05:17.324Z,16.87
2023-05-24T09:07:47.424Z,16.61
2023-05-24T09:10:16.298Z,17.27
2023-05-24T09:12:46.830Z,16.57
2023-05-24T09:15:14.792Z,16.30
2023-05-24T09:17:43.027Z,16.88
2023-05-24T09:20:12.411Z,16.77
2023-05-24T09:22:42.974Z,17.24
2023-05-24T09:25:15.095Z,16.93
2023-05-24T09:27:45.551Z,16.90
2023-05-24T09:30:16.477Z,16.96
2023-05-24T09:32:56.237Z,16.94
2023-05-24T09:35:24.288Z,17.49
2023-05-24T09:37:55.350Z,17.48
2023-05-24T09:40:25.745Z,17.33
2023-05-24T09:43:04.421Z,16.98
2023-05-24T09:45:34.342Z,16.77
2023-05-24T09:48:05.166Z,16.55
2023-05-24T09:50:33.010Z,16.73
2023-05-24T09:53:01.065Z,16.77
2023-05-24T09:55:31.070Z,17.19
2023-05-24T09:58:04.626Z,17.05
2023-05-24T10:00:36.810Z,16.42
2023-05-24T10:03:07.191Z,16.53
2023-05-24T10:05:36.311Z,16.91
2023-05-24T10:08:06.428Z,17.35
2023-05-24T10:10:35.938Z,16.35
2023-05-24T10:13:03.936Z,15.88
2023-05-24T10:15:31.813Z,16.61
2023-05-24T10:18:00.768Z,17.81
2023-05-24T10:20:28.767Z,16.57
2023-05-24T10:23:02.073Z,17.74
2023-05-24T10:25:30.968Z,18.23
2023-05-24T10:28:04.339Z,18.05
2023-05-24T10:30:37.733Z,17.38
2023-05-24T10:33:09.525Z,17.16
2023-05-24T10:35:38.592Z,18.14
2023-05-24T10:38:07.819Z,18.43
2023-05-24T10:40:37.062Z,18.86
2023-05-24T10:43:07.565Z,17.69
2023-05-24T10:45:38.391Z,17.84
2023-05-24T10:48:11.303Z,18.13
2023-05-24T10:50:39.217Z,18.60
2023-05-24T10:53:14.081Z,19.20
2023-05-24T10:55:58.544Z,18.83
2023-05-24T10:58:47.215Z,19.13
2023-05-24T11:01:15.604Z,18.80
2023-05-24T11:03:43.425Z,19.39
2023-05-24T11:06:11.404Z,19.64
2023-05-24T11:08:43.555Z,19.39
2023-05-24T11:13:49.242Z,18.69
2023-05-24T11:16:35.215Z,19.35
2023-05-24T11:19:13.280Z,19.38
2023-05-24T11:21:42.168Z,19.28
2023-05-24T11:24:10.610Z,19.05
2023-05-24T11:26:40.640Z,19.46
2023-05-24T11:29:10.414Z,20.19
2023-05-24T11:31:43.147Z,19.88
2023-05-24T11:34:12.507Z,18.45
2023-05-24T11:36:41.265Z,19.59
2023-05-24T11:39:09.648Z,18.51
2023-05-24T11:41:39.151Z,19.15
2023-05-24T11:44:10.876Z,19.14
2023-05-24T11:46:40.175Z,19.93
2023-05-24T11:49:08.282Z,20.70
2023-05-24T11:51:37.527Z,19.29
2023-05-24T11:54:05.459Z,18.94
2023-05-24T11:56:34.265Z,19.93
2023-05-24T11:59:15.522Z,19.71
2023-05-24T12:01:44.579Z,20.22
2023-05-24T12:04:13.228Z,19.35
2023-05-24T12:06:44.362Z,20.44
2023-05-24T12:09:14.371Z,20.24
2023-05-24T12:11:43.472Z,20.11
2023-05-24T12:14:17.897Z,19.84
2023-05-24T12:16:46.907Z,20.60
2023-05-24T12:19:31.680Z,20.30
2023-05-24T12:22:02.196Z,20.12
2023-05-24T12:24:30.558Z,20.43
2023-05-24T12:27:03.158Z,20.15
2023-05-24T12:29:36.808Z,19.01
2023-05-24T12:32:05.841Z,19.46
2023-05-24T12:34:33.878Z,20.01
2023-05-24T12:37:02.108Z,20.05
2023-05-24T12:39:34.192Z,20.07
2023-05-24T12:42:03.188Z,19.92
2023-05-24T12:44:32.929Z,20.32
2023-05-24T12:47:04.370Z,20.12
2023-05-24T12:49:32.718Z,19.73
2023-05-24T12:52:01.777Z,19.98
2023-05-24T12:54:30.435Z,20.53
2023-05-24T12:57:00.004Z,20.52
2023-05-24T12:59:29.570Z,19.91
2023-05-24T13:01:57.762Z,20.19
2023-05-24T13:04:27.710Z,20.00
2023-05-24T13:06:55.763Z,20.50
2023-05-24T13:09:25.842Z,20.48
2023-05-24T13:11:54.171Z,19.83
2023-05-24T13:14:22.697Z,19.94
2023-05-24T13:16:50.839Z,20.81
2023-05-24T13:19:18.844Z,20.66
2023-05-24T13:21:48.905Z,21.30
2023-05-24T13:24:17.541Z,20.31
2023-05-24T13:26:46.198Z,20.92
2023-05-24T13:31:45.205Z,19.59
2023-05-24T13:34:13.401Z,20.43
2023-05-24T13:36:42.054Z,19.88
2023-05-24T13:41:42.559Z,20.86
2023-05-24T13:44:10.889Z,20.56
2023-05-24T13:46:39.189Z,20.63
2023-05-24T13:49:07.850Z,20.25
2023-05-24T13:51:36.318Z,20.23
2023-05-24T13:54:04.981Z,19.71
2023-05-24T13:56:34.400Z,19.92
2023-05-24T13:59:03.621Z,20.47
2023-05-24T14:01:32.561Z,20.88
2023-05-24T14:04:02.433Z,20.06
2023-05-24T14:06:30.883Z,19.56
2023-05-24T14:08:59.259Z,19.76
2023-05-24T14:11:27.701Z,19.61
2023-05-24T14:16:27.704Z,20.87
2023-05-24T14:18:55.662Z,20.61
2023-05-24T14:21:23.516Z,20.99
2023-05-24T14:23:51.561Z,19.60
2023-05-24T14:26:20.110Z,20.05
2023-05-24T14:28:48.115Z,19.53
2023-05-24T14:31:17.477Z,19.72
2023-05-24T14:33:45.226Z,19.23
2023-05-24T14:36:12.985Z,18.61
2023-05-24T14:38:41.050Z,19.51
2023-05-24T14:41:10.044Z,19.35
2023-05-24T14:43:37.923Z,18.80
2023-05-24T14:46:06.083Z,19.23
2023-05-24T14:48:35.413Z,19.00
2023-05-24T14:51:03.413Z,18.99
2023-05-24T14:53:31.229Z,18.65
2023-05-24T14:55:59.240Z,18.46
2023-05-24T14:58:27.505Z,18.06
2023-05-24T15:00:55.396Z,18.86
2023-05-24T15:03:23.294Z,19.31
2023-05-24T15:05:53.242Z,18.88
2023-05-24T15:08:21.279Z,18.83
2023-05-24T15:10:49.360Z,18.32
2023-05-24T15:13:17.893Z,18.98
2023-05-24T15:15:45.881Z,18.75
2023-05-24T15:18:13.831Z,18.91
2023-05-24T15:20:42.021Z,19.29
2023-05-24T15:23:11.772Z,18.96
2023-05-24T15:25:39.634Z,18.86
2023-05-24T15:28:07.446Z,17.83
2023-05-24T15:30:35.196Z,17.35
2023-05-24T15:33:02.962Z,16.75
2023-05-24T15:35:31.316Z,16.70
2023-05-24T15:37:59.510Z,17.47
2023-05-24T15:40:28.796Z,17.02
2023-05-24T15:42:56.519Z,16.83
2023-05-24T15:45:24.189Z,16.90
2023-05-24T15:47:52.052Z,17.07
2023-05-24T15:50:28.463Z,16.63
2023-05-24T15:53:03.999Z,16.47
2023-05-24T15:55:33.914Z,16.21
2023-05-24T15:58:02.198Z,16.26
2023-05-24T16:00:30.467Z,16.38
2023-05-24T16:02:59.285Z,16.25
2023-05-24T16:05:28.359Z,16.16
2023-05-24T16:07:56.031Z,16.48
2023-05-24T16:10:23.869Z,16.51
2023-05-24T16:12:53.850Z,16.67
2023-05-24T16:15:21.830Z,16.93
2023-05-24T16:17:51.451Z,16.39
2023-05-24T16:20:19.329Z,16.46
2023-05-24T16:22:50.181Z,16.31
2023-05-24T16:25:17.923Z,16.36
2023-05-24T16:27:45.691Z,16.00
2023-05-24T16:30:15.276Z,16.47
2023-05-24T16:32:45.205Z,16.64
2023-05-24T16:35:13.325Z,16.53
2023-05-24T16:37:41.448Z,16.28
2023-05-24T16:40:09.901Z,16.27
2023-05-24T16:42:37.698Z,15.62
2023-05-24T16:45:06.401Z,15.74
2023-05-24T16:47:35.969Z,15.88
2023-05-24T16:50:04.153Z,15.99
2023-05-24T16:52:31.918Z,15.94
2023-05-24T16:55:00.479Z,16.06
2023-05-24T16:57:28.464Z,15.96
2023-05-24T16:59:58.248Z,16.12
2023-05-24T17:02:26.713Z,16.36
2023-05-24T17:04:56.450Z,16.80
2023-05-24T17:07:24.810Z,16.63
2023-05-24T17:09:52.999Z,16.96
2023-05-24T17:12:22.104Z,16.54
2023-05-24T17:14:50.066Z,16.80
2023-05-24T17:17:17.991Z,16.26
2023-05-24T17:19:45.878Z,16.38
2023-05-24T17:22:15.235Z,15.82
2023-05-24T17:24:43.198Z,16.21
2023-05-24T17:27:11.124Z,16.66
2023-05-24T17:29:44.637Z,16.39
2023-05-24T17:32:12.519Z,16.35
2023-05-24T17:34:40.431Z,15.90
2023-05-24T17:37:08.297Z,15.94
2023-05-24T17:39:40.055Z,16.31
2023-05-24T17:42:07.981Z,15.93
2023-05-24T17:44:36.123Z,15.68
2023-05-24T17:47:04.434Z,15.39
2023-05-24T17:49:33.063Z,15.67
2023-05-24T17:52:01.463Z,15.46
2023-05-24T17:54:29.361Z,15.44
2023-05-24T17:56:58.672Z,15.56
2023-05-24T17:59:26.670Z,15.42
2023-05-24T18:01:54.496Z,15.49
2023-05-24T18:04:22.640Z,15.49
2023-05-24T18:06:50.451Z,15.44
2023-05-24T18:09:18.691Z,15.20
2023-05-24T18:11:46.584Z,15.03
2023-05-24T18:14:16.062Z,15.24
2023-05-24T18:16:44.131Z,14.97
2023-05-24T18:19:12.120Z,15.12
2023-05-24T18:21:40.212Z,14.92
2023-05-24T18:24:08.840Z,14.90
2023-05-24T18:26:37.312Z,15.01
2023-05-24T18:29:06.275Z,15.06
2023-05-24T18:31:36.523Z,14.80
2023-05-24T18:34:06.413Z,15.14
2023-05-24T18:36:34.464Z,14.93
2023-05-24T18:39:03.205Z,14.88
2023-05-24T18:41:31.232Z,14.90
2023-05-24T18:43:59.116Z,14.80
2023-05-24T18:46:28.848Z,14.73
2023-05-24T18:49:00.297Z,14.68
2023-05-24T18:51:28.177Z,14.75
2023-05-24T18:53:56.846Z,14.50
2023-05-24T18:56:24.790Z,14.73
2023-05-24T18:58:53.902Z,14.46
2023-05-24T19:01:21.917Z,14.67
2023-05-24T19:03:50.428Z,14.34
2023-05-24T19:06:19.679Z,14.40
2023-05-24T19:08:49.947Z,14.53
2023-05-24T19:11:17.777Z,14.74
2023-05-24T19:13:45.835Z,14.89
2023-05-24T19:16:17.655Z,14.78
2023-05-24T19:18:46.234Z,14.44
2023-05-24T19:21:14.093Z,14.98
2023-05-24T19:23:43.714Z,14.74
2023-05-24T19:26:11.894Z,14.28
2023-05-24T19:28:41.892Z,14.53
2023-05-24T19:31:10.092Z,14.54
2023-05-24T19:33:48.412Z,14.45
2023-05-24T19:36:21.208Z,14.45
2023-05-24T19:38:50.752Z,14.49
2023-05-24T19:41:18.889Z,14.50
2023-05-24T19:43:46.978Z,13.97
2023-05-24T19:46:14.996Z,14.20
2023-05-24T19:48:44.103Z,14.19
2023-05-24T19:51:13.259Z,14.02
2023-05-24T19:53:41.224Z,14.05
2023-05-24T19:56:10.841Z,14.29
2023-05-24T19:58:38.961Z,14.35
2023-05-24T20:01:07.091Z,14.03
2023-05-24T20:03:35.345Z,14.24
2023-05-24T20:06:03.505Z,14.46
2023-05-24T20:08:31.358Z,14.33
2023-05-24T20:10:59.282Z,14.48
2023-05-24T20:13:28.776Z,14.16
2023-05-24T20:15:56.763Z,14.11
2023-05-24T20:18:24.731Z,14.33
2023-05-24T20:20:52.941Z,14.13
2023-05-24T20:23:20.833Z,14.05
2023-05-24T20:25:48.683Z,14.11
2023-05-24T20:28:29.424Z,13.86
2023-05-24T20:30:59.773Z,14.17
2023-05-24T20:33:27.747Z,13.92
2023-05-24T20:35:55.666Z,13.74
2023-05-24T20:38:24.425Z,13.71
2023-05-24T20:40:52.406Z,14.08
2023-05-24T20:43:20.186Z,14.01
2023-05-24T20:45:48.102Z,13.98
2023-05-24T20:48:17.594Z,14.19
2023-05-24T20:50:45.462Z,14.00
2023-05-24T20:53:13.329Z,13.87
2023-05-24T20:55:41.686Z,13.76
2023-05-24T20:58:09.942Z,13.92
2023-05-24T21:00:39.695Z,13.98
2023-05-24T21:03:09.562Z,13.81
2023-05-24T21:05:40.398Z,13.90
2023-05-24T21:08:09.207Z,13.83
2023-05-24T21:10:38.175Z,13.62
2023-05-24T21:13:06.177Z,13.49
2023-05-24T21:15:34.450Z,13.84
2023-05-24T21:18:02.375Z,13.86
2023-05-24T21:20:30.264Z,13.56
2023-05-24T21:22:59.482Z,13.45
2023-05-24T21:25:27.660Z,13.49
2023-05-24T21:27:55.428Z,13.62
2023-05-24T21:30:23.519Z,13.68
2023-05-24T21:32:51.262Z,13.55
2023-05-24T21:35:19.048Z,13.50
2023-05-24T21:37:46.833Z,13.86
2023-05-24T21:40:16.062Z,13.65
2023-05-24T21:42:44.521Z,13.49
2023-05-24T21:45:12.996Z,13.06
2023-05-24T21:47:40.835Z,13.45
2023-05-24T21:50:09.497Z,13.41
2023-05-24T21:52:37.224Z,13.55
2023-05-24T21:55:05.955Z,13.65
2023-05-24T21:57:35.086Z,13.54
2023-05-24T22:00:04.005Z,13.46
2023-05-24T22:02:32.081Z,13.56
2023-05-24T22:04:59.933Z,13.54
2023-05-24T22:07:27.704Z,13.72
2023-05-24T22:09:56.218Z,13.25
2023-05-24T22:12:23.976Z,13.41
2023-05-24T22:14:53.102Z,13.11
2023-05-24T22:17:21.868Z,13.33
2023-05-24T22:19:49.881Z,13.23
2023-05-24T22:22:19.524Z,13.39
2023-05-24T22:24:48.146Z,13.21
2023-05-24T22:27:17.147Z,12.84
2023-05-24T22:29:44.965Z,13.20
2023-05-24T22:32:14.509Z,12.86
2023-05-24T22:34:42.685Z,13.14
2023-05-24T22:37:10.792Z,12.79
2023-05-24T22:39:39.009Z,13.01
2023-05-24T22:42:06.855Z,12.76
2023-05-24T22:44:34.730Z,12.77
2023-05-24T22:47:03.312Z,12.42
2023-05-24T22:49:33.958Z,12.63
2023-05-24T22:52:02.025Z,12.47
2023-05-24T22:54:29.863Z,12.50
2023-05-24T22:56:57.751Z,12.47
2023-05-24T22:59:25.733Z,12.35
2023-05-24T23:01:53.978Z,12.20
2023-05-24T23:04:22.030Z,12.19
2023-05-24T23:06:53.568Z,12.40
2023-05-24T23:09:34.372Z,12.76
2023-05-24T23:12:02.416Z,12.72
2023-05-24T23:14:31.468Z,12.56
2023-05-24T23:17:02.513Z,12.60
2023-05-24T23:19:31.104Z,12.37
2023-05-24T23:22:00.491Z,12.34
2023-05-24T23:24:28.390Z,12.34
2023-05-24T23:26:57.021Z,11.95
2023-05-24T23:29:25.018Z,11.93
2023-05-24T23:31:52.861Z,12.14
2023-05-24T23:34:20.899Z,12.33
2023-05-24T23:36:48.597Z,12.20
2023-05-24T23:39:17.993Z,11.86
2023-05-24T23:41:46.065Z,11.58
2023-05-24T23:44:13.859Z,11.65
2023-05-24T23:46:42.396Z,11.75
2023-05-24T23:49:10.194Z,12.05
2023-05-24T23:51:37.923Z,12.03
2023-05-24T23:54:05.982Z,12.19
2023-05-24T23:56:35.139Z,12.21
2023-05-24T23:59:03.007Z,11.67
